sensor_id;sensor_type;location;lat;lon;timestamp;P1;durP1;ratioP1;P2;durP2;ratioP2
20772;SDS011;10546;50.674;4.616;2023-02-22T06:42:58;27.03;;;13.20;;
20772;SDS011;10546;50.674;4.616;2023-02-22T06:45:25;26.80;;;14.30;;
20772;SDS011;10546;50.674;4.616;2023-02-22T06:47:51;27.23;;;13.87;;
20772;SDS011;10546;50.674;4.616;2023-02-22T06:52:49;29.50;;;14.50;;
20772;SDS011;10546;50.674;4.616;2023-02-22T06:55:16;32.80;;;14.50;;
20772;SDS011;10546;50.674;4.616;2023-02-22T06:57:45;30.53;;;15.17;;
20772;SDS011;10546;50.674;4.616;2023-02-22T07:00:18;31.93;;;14.50;;
20772;SDS011;10546;50.674;4.616;2023-02-22T07:02:46;24.93;;;13.87;;
20772;SDS011;10546;50.674;4.616;2023-02-22T07:05:15;25.47;;;13.60;;
20772;SDS011;10546;50.674;4.616;2023-02-22T07:07:43;29.13;;;13.97;;
20772;SDS011;10546;50.674;4.616;2023-02-22T07:10:26;28.77;;;13.53;;
20772;SDS011;10546;50.674;4.616;2023-02-22T07:12:53;32.50;;;14.10;;
20772;SDS011;10546;50.674;4.616;2023-02-22T07:15:20;34.20;;;13.93;;
20772;SDS011;10546;50.674;4.616;2023-02-22T07:17:47;27.70;;;13.33;;
20772;SDS011;10546;50.674;4.616;2023-02-22T07:20:13;25.23;;;13.10;;
20772;SDS011;10546;50.674;4.616;2023-02-22T07:22:39;31.63;;;12.90;;
20772;SDS011;10546;50.674;4.616;2023-02-22T07:25:05;28.97;;;11.87;;
20772;SDS011;10546;50.674;4.616;2023-02-22T07:27:35;26.37;;;12.50;;
20772;SDS011;10546;50.674;4.616;2023-02-22T07:30:05;26.70;;;11.87;;
20772;SDS011;10546;50.674;4.616;2023-02-22T07:32:34;24.00;;;11.33;;
20772;SDS011;10546;50.674;4.616;2023-02-22T07:35:00;22.27;;;11.63;;
20772;SDS011;10546;50.674;4.616;2023-02-22T07:37:27;27.47;;;11.47;;
20772;SDS011;10546;50.674;4.616;2023-02-22T07:39:53;21.17;;;10.23;;
20772;SDS011;10546;50.674;4.616;2023-02-22T07:42:18;20.67;;;10.70;;
20772;SDS011;10546;50.674;4.616;2023-02-22T07:44:45;23.00;;;10.30;;
20772;SDS011;10546;50.674;4.616;2023-02-22T07:47:10;19.63;;;10.83;;
20772;SDS011;10546;50.674;4.616;2023-02-22T07:49:38;18.20;;;9.73;;
20772;SDS011;10546;50.674;4.616;2023-02-22T07:52:14;19.07;;;9.50;;
20772;SDS011;10546;50.674;4.616;2023-02-22T07:55:03;20.23;;;10.93;;
20772;SDS011;10546;50.674;4.616;2023-02-22T07:57:32;17.13;;;9.53;;
20772;SDS011;10546;50.674;4.616;2023-02-22T08:00:01;19.10;;;10.40;;
20772;SDS011;10546;50.674;4.616;2023-02-22T08:02:31;15.67;;;8.87;;
20772;SDS011;10546;50.674;4.616;2023-02-22T08:04:58;21.37;;;10.00;;
20772;SDS011;10546;50.674;4.616;2023-02-22T08:07:24;18.47;;;9.40;;
20772;SDS011;10546;50.674;4.616;2023-02-22T08:09:55;15.93;;;8.77;;
20772;SDS011;10546;50.674;4.616;2023-02-22T08:12:23;20.53;;;9.03;;
20772;SDS011;10546;50.674;4.616;2023-02-22T08:14:48;28.53;;;9.00;;
20772;SDS011;10546;50.674;4.616;2023-02-22T08:17:17;22.07;;;9.77;;
20772;SDS011;10546;50.674;4.616;2023-02-22T08:19:43;19.47;;;8.73;;
20772;SDS011;10546;50.674;4.616;2023-02-22T08:22:09;18.57;;;9.00;;
20772;SDS011;10546;50.674;4.616;2023-02-22T08:24:34;21.10;;;9.10;;
20772;SDS011;10546;50.674;4.616;2023-02-22T08:27:00;19.23;;;8.50;;
20772;SDS011;10546;50.674;4.616;2023-02-22T08:29:32;19.50;;;8.87;;
20772;SDS011;10546;50.674;4.616;2023-02-22T08:32:02;17.57;;;8.80;;
20772;SDS011;10546;50.674;4.616;2023-02-22T08:34:30;16.70;;;8.67;;
20772;SDS011;10546;50.674;4.616;2023-02-22T08:37:19;20.13;;;9.83;;
20772;SDS011;10546;50.674;4.616;2023-02-22T08:39:53;21.70;;;9.53;;
20772;SDS011;10546;50.674;4.616;2023-02-22T08:42:21;19.53;;;9.57;;
20772;SDS011;10546;50.674;4.616;2023-02-22T08:44:53;19.80;;;9.27;;
20772;SDS011;10546;50.674;4.616;2023-02-22T08:47:22;18.17;;;8.70;;
20772;SDS011;10546;50.674;4.616;2023-02-22T08:50:17;16.00;;;8.13;;
20772;SDS011;10546;50.674;4.616;2023-02-22T08:52:49;19.40;;;9.53;;
20772;SDS011;10546;50.674;4.616;2023-02-22T08:55:18;20.97;;;9.23;;
20772;SDS011;10546;50.674;4.616;2023-02-22T08:57:46;18.87;;;9.83;;
20772;SDS011;10546;50.674;4.616;2023-02-22T09:00:12;21.20;;;10.13;;
20772;SDS011;10546;50.674;4.616;2023-02-22T09:02:49;20.10;;;9.70;;
20772;SDS011;10546;50.674;4.616;2023-02-22T09:05:15;19.67;;;9.77;;
20772;SDS011;10546;50.674;4.616;2023-02-22T09:07:42;18.60;;;10.40;;
20772;SDS011;10546;50.674;4.616;2023-02-22T09:10:15;23.03;;;11.50;;
20772;SDS011;10546;50.674;4.616;2023-02-22T09:12:53;23.07;;;11.23;;
20772;SDS011;10546;50.674;4.616;2023-02-22T09:15:30;22.57;;;10.60;;
20772;SDS011;10546;50.674;4.616;2023-02-22T09:18:11;24.37;;;11.50;;
20772;SDS011;10546;50.674;4.616;2023-02-22T09:21:03;24.83;;;10.80;;
20772;SDS011;10546;50.674;4.616;2023-02-22T09:23:39;25.80;;;10.60;;
20772;SDS011;10546;50.674;4.616;2023-02-22T09:26:09;22.70;;;10.77;;
20772;SDS011;10546;50.674;4.616;2023-02-22T09:28:49;22.60;;;10.20;;
20772;SDS011;10546;50.674;4.616;2023-02-22T09:31:26;19.13;;;11.00;;
20772;SDS011;10546;50.674;4.616;2023-02-22T09:33:55;20.93;;;11.03;;
20772;SDS011;10546;50.674;4.616;2023-02-22T09:36:21;31.60;;;13.57;;
20772;SDS011;10546;50.674;4.616;2023-02-22T09:39:19;25.00;;;11.03;;
20772;SDS011;10546;50.674;4.616;2023-02-22T09:44:48;22.10;;;11.57;;
20772;SDS011;10546;50.674;4.616;2023-02-22T09:48:06;30.03;;;11.23;;
20772;SDS011;10546;50.674;4.616;2023-02-22T09:51:30;24.20;;;11.50;;
20772;SDS011;10546;50.674;4.616;2023-02-22T09:54:41;19.30;;;11.27;;
20772;SDS011;10546;50.674;4.616;2023-02-22T09:57:46;33.50;;;13.90;;
20772;SDS011;10546;50.674;4.616;2023-02-22T10:01:30;27.27;;;12.40;;
20772;SDS011;10546;50.674;4.616;2023-02-22T10:04:19;35.67;;;13.50;;
20772;SDS011;10546;50.674;4.616;2023-02-22T10:07:16;24.73;;;12.00;;
20772;SDS011;10546;50.674;4.616;2023-02-22T10:10:21;24.97;;;12.00;;
20772;SDS011;10546;50.674;4.616;2023-02-22T10:20:53;28.07;;;12.20;;
20772;SDS011;10546;50.674;4.616;2023-02-22T10:27:03;21.07;;;11.70;;
20772;SDS011;10546;50.674;4.616;2023-02-22T10:30:18;26.80;;;13.57;;
20772;SDS011;10546;50.674;4.616;2023-02-22T10:36:19;20.90;;;11.87;;
20772;SDS011;10546;50.674;4.616;2023-02-22T10:39:09;23.77;;;12.20;;
20772;SDS011;10546;50.674;4.616;2023-02-22T10:42:13;22.97;;;12.93;;
20772;SDS011;10546;50.674;4.616;2023-02-22T10:45:00;26.63;;;12.20;;
20772;SDS011;10546;50.674;4.616;2023-02-22T10:47:30;29.53;;;12.97;;
20772;SDS011;10546;50.674;4.616;2023-02-22T10:50:29;24.87;;;12.03;;
20772;SDS011;10546;50.674;4.616;2023-02-22T10:53:39;22.70;;;13.00;;
20772;SDS011;10546;50.674;4.616;2023-02-22T10:56:24;22.10;;;12.87;;
20772;SDS011;10546;50.674;4.616;2023-02-22T11:01:38;27.27;;;12.20;;
20772;SDS011;10546;50.674;4.616;2023-02-22T11:04:49;22.73;;;12.53;;
20772;SDS011;10546;50.674;4.616;2023-02-22T11:07:32;20.90;;;12.80;;
20772;SDS011;10546;50.674;4.616;2023-02-22T11:10:41;27.67;;;12.93;;
20772;SDS011;10546;50.674;4.616;2023-02-22T11:14:00;23.50;;;12.83;;
20772;SDS011;10546;50.674;4.616;2023-02-22T11:17:06;21.80;;;13.23;;
20772;SDS011;10546;50.674;4.616;2023-02-22T11:19:46;22.80;;;13.03;;
20772;SDS011;10546;50.674;4.616;2023-02-22T11:22:39;25.90;;;12.87;;
20772;SDS011;10546;50.674;4.616;2023-02-22T11:25:35;22.33;;;13.70;;
20772;SDS011;10546;50.674;4.616;2023-02-22T11:28:10;24.57;;;13.60;;
20772;SDS011;10546;50.674;4.616;2023-02-22T11:31:15;25.27;;;14.50;;
20772;SDS011;10546;50.674;4.616;2023-02-22T11:34:00;22.87;;;13.30;;
20772;SDS011;10546;50.674;4.616;2023-02-22T11:36:35;27.27;;;15.07;;
20772;SDS011;10546;50.674;4.616;2023-02-22T11:39:09;28.93;;;14.60;;
20772;SDS011;10546;50.674;4.616;2023-02-22T11:41:48;23.63;;;14.60;;
20772;SDS011;10546;50.674;4.616;2023-02-22T11:46:57;27.17;;;16.83;;
20772;SDS011;10546;50.674;4.616;2023-02-22T11:49:34;29.73;;;16.67;;
20772;SDS011;10546;50.674;4.616;2023-02-22T11:52:08;26.90;;;16.40;;
20772;SDS011;10546;50.674;4.616;2023-02-22T11:54:54;25.73;;;15.37;;
20772;SDS011;10546;50.674;4.616;2023-02-22T11:58:00;33.23;;;16.83;;
20772;SDS011;10546;50.674;4.616;2023-02-22T12:04:13;28.10;;;17.67;;
20772;SDS011;10546;50.674;4.616;2023-02-22T12:12:55;33.93;;;18.23;;
20772;SDS011;10546;50.674;4.616;2023-02-22T12:15:44;28.70;;;17.50;;
20772;SDS011;10546;50.674;4.616;2023-02-22T12:18:42;28.63;;;16.83;;
20772;SDS011;10546;50.674;4.616;2023-02-22T12:21:29;30.63;;;18.50;;
20772;SDS011;10546;50.674;4.616;2023-02-22T12:24:05;28.83;;;17.23;;
20772;SDS011;10546;50.674;4.616;2023-02-22T12:26:40;31.33;;;19.13;;
20772;SDS011;10546;50.674;4.616;2023-02-22T12:29:27;31.10;;;18.70;;
20772;SDS011;10546;50.674;4.616;2023-02-22T12:32:23;34.47;;;19.17;;
20772;SDS011;10546;50.674;4.616;2023-02-22T12:34:58;32.63;;;19.97;;
20772;SDS011;10546;50.674;4.616;2023-02-22T12:40:48;33.57;;;19.73;;
20772;SDS011;10546;50.674;4.616;2023-02-22T12:46:11;44.23;;;20.20;;
20772;SDS011;10546;50.674;4.616;2023-02-22T13:00:20;40.37;;;20.63;;
20772;SDS011;10546;50.674;4.616;2023-02-22T13:03:04;36.37;;;21.07;;
20772;SDS011;10546;50.674;4.616;2023-02-22T13:14:46;35.17;;;19.87;;
20772;SDS011;10546;50.674;4.616;2023-02-22T13:17:43;170.10;;;75.73;;
20772;SDS011;10546;50.674;4.616;2023-02-22T13:20:16;38.40;;;21.03;;
20772;SDS011;10546;50.674;4.616;2023-02-22T13:29:36;33.27;;;20.80;;
20772;SDS011;10546;50.674;4.616;2023-02-22T13:52:31;34.57;;;21.13;;
20772;SDS011;10546;50.674;4.616;2023-02-22T13:55:03;34.93;;;20.80;;
20772;SDS011;10546;50.674;4.616;2023-02-22T13:57:39;37.53;;;21.50;;
20772;SDS011;10546;50.674;4.616;2023-02-22T14:03:01;36.07;;;20.87;;
20772;SDS011;10546;50.674;4.616;2023-02-22T14:13:19;33.77;;;20.07;;
20772;SDS011;10546;50.674;4.616;2023-02-22T14:18:28;40.13;;;21.53;;
20772;SDS011;10546;50.674;4.616;2023-02-22T14:23:37;39.93;;;21.40;;
20772;SDS011;10546;50.674;4.616;2023-02-22T14:31:30;33.87;;;20.83;;
20772;SDS011;10546;50.674;4.616;2023-02-22T14:36:50;39.07;;;24.53;;
20772;SDS011;10546;50.674;4.616;2023-02-22T14:42:18;41.60;;;26.00;;
20772;SDS011;10546;50.674;4.616;2023-02-22T14:45:02;54.80;;;33.80;;
20772;SDS011;10546;50.674;4.616;2023-02-22T14:53:06;48.03;;;26.80;;
20772;SDS011;10546;50.674;4.616;2023-02-22T14:55:41;52.73;;;30.03;;
20772;SDS011;10546;50.674;4.616;2023-02-22T15:01:21;47.73;;;27.33;;
20772;SDS011;10546;50.674;4.616;2023-02-22T15:03:49;51.50;;;27.07;;
20772;SDS011;10546;50.674;4.616;2023-02-22T15:06:19;50.87;;;27.43;;
20772;SDS011;10546;50.674;4.616;2023-02-22T15:08:47;47.23;;;26.73;;
20772;SDS011;10546;50.674;4.616;2023-02-22T15:11:29;46.87;;;26.90;;
20772;SDS011;10546;50.674;4.616;2023-02-22T15:13:59;46.43;;;28.40;;
20772;SDS011;10546;50.674;4.616;2023-02-22T15:16:30;48.53;;;29.47;;
20772;SDS011;10546;50.674;4.616;2023-02-22T15:18:58;49.77;;;27.40;;
20772;SDS011;10546;50.674;4.616;2023-02-22T15:21:30;46.73;;;27.87;;
20772;SDS011;10546;50.674;4.616;2023-02-22T15:24:00;48.03;;;27.93;;
20772;SDS011;10546;50.674;4.616;2023-02-22T15:26:34;47.37;;;26.83;;
20772;SDS011;10546;50.674;4.616;2023-02-22T15:29:06;47.60;;;26.87;;
20772;SDS011;10546;50.674;4.616;2023-02-22T15:31:35;51.77;;;29.57;;
20772;SDS011;10546;50.674;4.616;2023-02-22T15:34:14;52.77;;;29.90;;
20772;SDS011;10546;50.674;4.616;2023-02-22T15:36:46;48.07;;;28.90;;
20772;SDS011;10546;50.674;4.616;2023-02-22T15:42:08;51.83;;;29.47;;
20772;SDS011;10546;50.674;4.616;2023-02-22T15:44:43;52.70;;;28.77;;
20772;SDS011;10546;50.674;4.616;2023-02-22T15:47:18;49.83;;;29.83;;
20772;SDS011;10546;50.674;4.616;2023-02-22T15:52:57;52.70;;;27.90;;
20772;SDS011;10546;50.674;4.616;2023-02-22T15:55:56;48.00;;;27.93;;
20772;SDS011;10546;50.674;4.616;2023-02-22T15:58:24;50.63;;;29.27;;
20772;SDS011;10546;50.674;4.616;2023-02-22T16:03:26;56.23;;;33.03;;
20772;SDS011;10546;50.674;4.616;2023-02-22T16:05:59;55.50;;;30.77;;
20772;SDS011;10546;50.674;4.616;2023-02-22T16:08:38;53.83;;;30.33;;
20772;SDS011;10546;50.674;4.616;2023-02-22T16:14:04;58.90;;;30.87;;
20772;SDS011;10546;50.674;4.616;2023-02-22T16:16:47;54.93;;;31.03;;
20772;SDS011;10546;50.674;4.616;2023-02-22T16:19:34;54.00;;;31.57;;
20772;SDS011;10546;50.674;4.616;2023-02-22T16:22:27;56.43;;;32.97;;
20772;SDS011;10546;50.674;4.616;2023-02-22T16:25:10;57.90;;;33.43;;
20772;SDS011;10546;50.674;4.616;2023-02-22T16:27:40;58.33;;;32.23;;
20772;SDS011;10546;50.674;4.616;2023-02-22T16:32:46;62.07;;;34.67;;
20772;SDS011;10546;50.674;4.616;2023-02-22T16:35:12;70.10;;;35.67;;
20772;SDS011;10546;50.674;4.616;2023-02-22T16:37:53;62.80;;;36.70;;
20772;SDS011;10546;50.674;4.616;2023-02-22T16:40:23;68.47;;;37.03;;
20772;SDS011;10546;50.674;4.616;2023-02-22T16:43:00;71.07;;;37.33;;
20772;SDS011;10546;50.674;4.616;2023-02-22T16:45:29;65.80;;;38.53;;
20772;SDS011;10546;50.674;4.616;2023-02-22T16:47:55;75.23;;;39.17;;
20772;SDS011;10546;50.674;4.616;2023-02-22T16:50:21;75.10;;;41.90;;
20772;SDS011;10546;50.674;4.616;2023-02-22T16:52:47;76.80;;;40.23;;
20772;SDS011;10546;50.674;4.616;2023-02-22T16:55:15;80.70;;;41.47;;
20772;SDS011;10546;50.674;4.616;2023-02-22T16:57:43;81.17;;;40.27;;
20772;SDS011;10546;50.674;4.616;2023-02-22T17:00:19;86.33;;;43.43;;
20772;SDS011;10546;50.674;4.616;2023-02-22T17:02:56;79.13;;;41.33;;
20772;SDS011;10546;50.674;4.616;2023-02-22T17:05:34;84.17;;;41.33;;
20772;SDS011;10546;50.674;4.616;2023-02-22T17:08:24;84.37;;;41.87;;
20772;SDS011;10546;50.674;4.616;2023-02-22T17:10:50;93.90;;;42.47;;
20772;SDS011;10546;50.674;4.616;2023-02-22T17:13:27;88.13;;;43.33;;
20772;SDS011;10546;50.674;4.616;2023-02-22T17:15:53;98.20;;;42.23;;
20772;SDS011;10546;50.674;4.616;2023-02-22T17:18:20;93.80;;;43.00;;
20772;SDS011;10546;50.674;4.616;2023-02-22T17:20:48;87.47;;;40.70;;
20772;SDS011;10546;50.674;4.616;2023-02-22T17:23:14;86.63;;;43.63;;
20772;SDS011;10546;50.674;4.616;2023-02-22T17:25:41;82.53;;;40.67;;
20772;SDS011;10546;50.674;4.616;2023-02-22T17:28:09;90.53;;;42.53;;
20772;SDS011;10546;50.674;4.616;2023-02-22T17:30:38;89.33;;;41.67;;
20772;SDS011;10546;50.674;4.616;2023-02-22T17:33:04;94.70;;;47.33;;
20772;SDS011;10546;50.674;4.616;2023-02-22T17:35:33;105.77;;;52.87;;
20772;SDS011;10546;50.674;4.616;2023-02-22T17:38:00;84.27;;;42.77;;
20772;SDS011;10546;50.674;4.616;2023-02-22T17:40:30;98.87;;;48.50;;
20772;SDS011;10546;50.674;4.616;2023-02-22T17:43:00;80.23;;;40.80;;
20772;SDS011;10546;50.674;4.616;2023-02-22T17:45:26;80.93;;;40.57;;
20772;SDS011;10546;50.674;4.616;2023-02-22T17:47:52;79.90;;;41.07;;
20772;SDS011;10546;50.674;4.616;2023-02-22T17:50:18;71.93;;;36.53;;
20772;SDS011;10546;50.674;4.616;2023-02-22T17:52:45;95.23;;;49.63;;
20772;SDS011;10546;50.674;4.616;2023-02-22T17:55:11;73.67;;;37.47;;
20772;SDS011;10546;50.674;4.616;2023-02-22T17:57:37;84.90;;;43.50;;
20772;SDS011;10546;50.674;4.616;2023-02-22T18:00:09;75.83;;;37.77;;
20772;SDS011;10546;50.674;4.616;2023-02-22T18:02:47;71.07;;;36.80;;
20772;SDS011;10546;50.674;4.616;2023-02-22T18:05:16;68.23;;;35.50;;
20772;SDS011;10546;50.674;4.616;2023-02-22T18:07:43;71.83;;;36.17;;
20772;SDS011;10546;50.674;4.616;2023-02-22T18:10:10;85.47;;;43.83;;
20772;SDS011;10546;50.674;4.616;2023-02-22T18:12:37;82.97;;;43.33;;
20772;SDS011;10546;50.674;4.616;2023-02-22T18:15:04;101.77;;;56.97;;
20772;SDS011;10546;50.674;4.616;2023-02-22T18:17:30;81.80;;;43.37;;
20772;SDS011;10546;50.674;4.616;2023-02-22T18:19:55;82.73;;;41.43;;
20772;SDS011;10546;50.674;4.616;2023-02-22T18:22:21;82.80;;;39.77;;
20772;SDS011;10546;50.674;4.616;2023-02-22T18:24:47;80.03;;;40.73;;
20772;SDS011;10546;50.674;4.616;2023-02-22T18:27:13;85.87;;;38.97;;
20772;SDS011;10546;50.674;4.616;2023-02-22T18:29:39;76.63;;;36.93;;
20772;SDS011;10546;50.674;4.616;2023-02-22T18:32:05;75.97;;;37.07;;
20772;SDS011;10546;50.674;4.616;2023-02-22T18:34:36;74.30;;;35.83;;
20772;SDS011;10546;50.674;4.616;2023-02-22T18:37:02;72.07;;;35.73;;
20772;SDS011;10546;50.674;4.616;2023-02-22T18:39:30;82.87;;;41.10;;
20772;SDS011;10546;50.674;4.616;2023-02-22T18:41:58;106.40;;;49.07;;
20772;SDS011;10546;50.674;4.616;2023-02-22T18:44:24;93.30;;;42.20;;
20772;SDS011;10546;50.674;4.616;2023-02-22T18:46:51;103.90;;;47.70;;
20772;SDS011;10546;50.674;4.616;2023-02-22T18:49:18;75.33;;;35.97;;
20772;SDS011;10546;50.674;4.616;2023-02-22T18:51:43;71.87;;;34.23;;
20772;SDS011;10546;50.674;4.616;2023-02-22T18:54:10;77.97;;;36.80;;
20772;SDS011;10546;50.674;4.616;2023-02-22T18:56:36;89.20;;;44.80;;
20772;SDS011;10546;50.674;4.616;2023-02-22T18:59:03;77.87;;;39.77;;
20772;SDS011;10546;50.674;4.616;2023-02-22T19:01:29;74.23;;;35.37;;
20772;SDS011;10546;50.674;4.616;2023-02-22T19:04:01;74.27;;;36.70;;
20772;SDS011;10546;50.674;4.616;2023-02-22T19:06:27;80.37;;;41.70;;
20772;SDS011;10546;50.674;4.616;2023-02-22T19:08:52;77.50;;;37.67;;
20772;SDS011;10546;50.674;4.616;2023-02-22T19:11:19;79.77;;;37.53;;
20772;SDS011;10546;50.674;4.616;2023-02-22T19:13:46;76.23;;;39.20;;
20772;SDS011;10546;50.674;4.616;2023-02-22T19:16:14;79.87;;;37.00;;
20772;SDS011;10546;50.674;4.616;2023-02-22T19:18:43;80.43;;;37.20;;
20772;SDS011;10546;50.674;4.616;2023-02-22T19:21:09;103.27;;;48.13;;
20772;SDS011;10546;50.674;4.616;2023-02-22T19:23:37;135.67;;;59.67;;
20772;SDS011;10546;50.674;4.616;2023-02-22T19:26:20;110.47;;;50.37;;
20772;SDS011;10546;50.674;4.616;2023-02-22T19:28:48;91.13;;;43.20;;
20772;SDS011;10546;50.674;4.616;2023-02-22T19:31:16;208.73;;;88.13;;
20772;SDS011;10546;50.674;4.616;2023-02-22T19:33:46;86.97;;;39.57;;
20772;SDS011;10546;50.674;4.616;2023-02-22T19:36:15;82.27;;;38.90;;
20772;SDS011;10546;50.674;4.616;2023-02-22T19:38:41;74.20;;;36.63;;
20772;SDS011;10546;50.674;4.616;2023-02-22T19:41:15;103.17;;;50.93;;
20772;SDS011;10546;50.674;4.616;2023-02-22T19:43:43;101.23;;;49.57;;
20772;SDS011;10546;50.674;4.616;2023-02-22T19:46:13;84.50;;;39.80;;
20772;SDS011;10546;50.674;4.616;2023-02-22T19:48:41;82.77;;;40.13;;
20772;SDS011;10546;50.674;4.616;2023-02-22T19:51:08;80.43;;;39.27;;
20772;SDS011;10546;50.674;4.616;2023-02-22T19:53:35;84.73;;;39.80;;
20772;SDS011;10546;50.674;4.616;2023-02-22T19:56:10;115.00;;;56.13;;
20772;SDS011;10546;50.674;4.616;2023-02-22T19:58:44;402.50;;;221.60;;
20772;SDS011;10546;50.674;4.616;2023-02-22T20:01:25;161.80;;;83.67;;
20772;SDS011;10546;50.674;4.616;2023-02-22T20:04:09;203.33;;;80.00;;
20772;SDS011;10546;50.674;4.616;2023-02-22T20:06:41;213.53;;;90.63;;
20772;SDS011;10546;50.674;4.616;2023-02-22T20:09:09;104.50;;;50.80;;
20772;SDS011;10546;50.674;4.616;2023-02-22T20:11:37;113.33;;;56.63;;
20772;SDS011;10546;50.674;4.616;2023-02-22T20:14:02;91.73;;;46.37;;
20772;SDS011;10546;50.674;4.616;2023-02-22T20:16:32;86.23;;;44.30;;
20772;SDS011;10546;50.674;4.616;2023-02-22T20:18:59;98.47;;;47.60;;
20772;SDS011;10546;50.674;4.616;2023-02-22T20:21:26;103.67;;;51.43;;
20772;SDS011;10546;50.674;4.616;2023-02-22T20:23:59;107.07;;;53.70;;
20772;SDS011;10546;50.674;4.616;2023-02-22T20:26:28;117.00;;;61.40;;
20772;SDS011;10546;50.674;4.616;2023-02-22T20:28:55;107.33;;;54.90;;
20772;SDS011;10546;50.674;4.616;2023-02-22T20:31:21;94.13;;;48.77;;
20772;SDS011;10546;50.674;4.616;2023-02-22T20:33:48;110.90;;;60.23;;
20772;SDS011;10546;50.674;4.616;2023-02-22T20:36:20;108.73;;;56.50;;
20772;SDS011;10546;50.674;4.616;2023-02-22T20:38:46;170.87;;;93.97;;
20772;SDS011;10546;50.674;4.616;2023-02-22T20:41:13;96.17;;;53.97;;
20772;SDS011;10546;50.674;4.616;2023-02-22T20:43:39;95.20;;;49.80;;
20772;SDS011;10546;50.674;4.616;2023-02-22T20:46:05;105.40;;;52.77;;
20772;SDS011;10546;50.674;4.616;2023-02-22T20:48:31;123.23;;;62.97;;
20772;SDS011;10546;50.674;4.616;2023-02-22T20:51:07;113.13;;;57.23;;
20772;SDS011;10546;50.674;4.616;2023-02-22T20:53:35;102.07;;;53.47;;
20772;SDS011;10546;50.674;4.616;2023-02-22T20:56:06;121.60;;;66.80;;
20772;SDS011;10546;50.674;4.616;2023-02-22T20:58:39;192.87;;;105.80;;
20772;SDS011;10546;50.674;4.616;2023-02-22T21:01:06;135.50;;;73.10;;
20772;SDS011;10546;50.674;4.616;2023-02-22T21:03:33;171.23;;;95.17;;
20772;SDS011;10546;50.674;4.616;2023-02-22T21:05:59;162.40;;;86.60;;
20772;SDS011;10546;50.674;4.616;2023-02-22T21:08:27;185.43;;;102.57;;
20772;SDS011;10546;50.674;4.616;2023-02-22T21:10:52;199.13;;;107.70;;
20772;SDS011;10546;50.674;4.616;2023-02-22T21:13:18;218.27;;;104.07;;
20772;SDS011;10546;50.674;4.616;2023-02-22T21:15:44;378.17;;;168.97;;
20772;SDS011;10546;50.674;4.616;2023-02-22T21:18:11;349.73;;;153.17;;
20772;SDS011;10546;50.674;4.616;2023-02-22T21:20:37;182.07;;;86.20;;
20772;SDS011;10546;50.674;4.616;2023-02-22T21:23:06;147.83;;;73.80;;
20772;SDS011;10546;50.674;4.616;2023-02-22T21:25:32;127.70;;;67.77;;
20772;SDS011;10546;50.674;4.616;2023-02-22T21:27:58;102.23;;;50.47;;
20772;SDS011;10546;50.674;4.616;2023-02-22T21:30:24;113.43;;;54.57;;
20772;SDS011;10546;50.674;4.616;2023-02-22T21:32:50;108.87;;;53.57;;
20772;SDS011;10546;50.674;4.616;2023-02-22T21:35:18;103.40;;;48.60;;
20772;SDS011;10546;50.674;4.616;2023-02-22T21:37:45;105.27;;;48.53;;
20772;SDS011;10546;50.674;4.616;2023-02-22T21:40:11;100.67;;;48.27;;
20772;SDS011;10546;50.674;4.616;2023-02-22T21:42:43;98.23;;;49.60;;
20772;SDS011;10546;50.674;4.616;2023-02-22T21:45:13;106.30;;;49.27;;
20772;SDS011;10546;50.674;4.616;2023-02-22T21:47:40;179.07;;;75.10;;
20772;SDS011;10546;50.674;4.616;2023-02-22T21:50:06;111.53;;;50.83;;
20772;SDS011;10546;50.674;4.616;2023-02-22T21:52:34;414.80;;;166.13;;
20772;SDS011;10546;50.674;4.616;2023-02-22T21:55:01;185.60;;;76.90;;
